Time;durP1;ratioP1;P1;durP2;ratioP2;P2;SDS_P1;SDS_P2;PMS_P1;PMS_P2;Temp;Humidity;BMP_temperature;BMP_pressure;BME280_temperature;BME280_humidity;BME280_pressure;Samples;Min_cycle;Max_cycle;Signal;HPM_P1;HPM_P2
2022/07/08 00:02:09;;;;;;;;;6.75;2.25;;;;;16.45;100.00;102704.94;4951127;28;44784;-88
2022/07/08 00:04:35;;;;;;;;;1.50;1.25;;;;;16.43;100.00;102701.47;4974196;28;45141;-88
2022/07/08 00:07:00;;;;;;;;;3.25;3.00;;;;;16.40;100.00;102690.09;4960206;28;44709;-87
2022/07/08 00:09:26;;;;;;;;;3.25;2.75;;;;;16.34;100.00;102688.63;4977599;28;44624;-87
2022/07/08 00:11:53;;;;;;;;;4.40;3.00;;;;;16.38;100.00;102708.06;4970467;28;44863;-89
2022/07/08 00:14:19;;;;;;;;;2.60;1.00;;;;;16.35;100.00;102719.00;4978428;28;45008;-89
2022/07/08 00:16:44;;;;;;;;;4.00;4.00;;;;;16.30;100.00;102697.81;4979969;28;45254;-88
2022/07/08 00:19:13;;;;;;;;;3.25;2.25;;;;;16.27;100.00;102703.34;4977522;28;44791;-88
2022/07/08 00:21:38;;;;;;;;;2.25;2.25;;;;;16.16;100.00;102687.91;4955677;28;45319;-89
2022/07/08 00:24:05;;;;;;;;;5.00;3.00;;;;;16.15;100.00;102707.63;4965216;28;45259;-89
2022/07/08 00:26:30;;;;;;;;;2.80;2.60;;;;;16.07;100.00;102699.19;4955466;28;45185;-89
2022/07/08 00:28:56;;;;;;;;;2.00;2.00;;;;;16.04;100.00;102698.47;4952804;28;45346;-89
2022/07/08 00:31:22;;;;;;;;;2.25;2.25;;;;;15.97;100.00;102683.72;4962122;28;45236;-85
2022/07/08 00:33:48;;;;;;;;;2.00;2.00;;;;;15.98;100.00;102707.75;4964245;28;45498;-85
2022/07/08 00:36:13;;;;;;;;;6.25;4.75;;;;;15.93;100.00;102701.78;4965996;28;44737;-86
2022/07/08 00:38:39;;;;;;;;;4.00;2.50;;;;;15.90;100.00;102683.19;4966636;28;45525;-84
2022/07/08 00:41:04;;;;;;;;;5.00;3.00;;;;;15.86;100.00;102685.22;4966624;28;44725;-84
2022/07/08 00:43:40;;;;;;;;;4.75;2.25;;;;;15.88;100.00;102694.03;4966051;28;45236;-89
2022/07/08 00:46:06;;;;;;;;;3.00;2.00;;;;;15.86;100.00;102687.03;4980643;28;45425;-89
2022/07/08 00:48:32;;;;;;;;;3.20;3.20;;;;;15.85;100.00;102687.97;4985991;28;44801;-89
2022/07/08 00:51:00;;;;;;;;;7.75;4.00;;;;;15.82;100.00;102694.38;4983685;28;44878;-89
2022/07/08 00:53:27;;;;;;;;;6.60;2.40;;;;;15.79;100.00;102699.06;4982144;28;46019;-88
2022/07/08 00:55:53;;;;;;;;;3.60;3.60;;;;;15.78;100.00;102702.69;4981833;28;45476;-89
2022/07/08 00:58:19;;;;;;;;;3.80;3.80;;;;;15.76;100.00;102700.09;4984037;28;44846;-89
2022/07/08 01:00:48;;;;;;;;;3.00;3.00;;;;;15.79;100.00;102701.72;4986935;28;44890;-90
2022/07/08 01:03:14;;;;;;;;;3.00;2.00;;;;;15.76;100.00;102710.81;4988901;28;45405;-89
2022/07/08 01:05:39;;;;;;;;;5.25;4.00;;;;;15.73;100.00;102694.91;4987087;28;44914;-89
2022/07/08 01:08:05;;;;;;;;;4.50;4.50;;;;;15.74;100.00;102715.38;4985069;28;44755;-89
2022/07/08 01:10:32;;;;;;;;;3.50;3.50;;;;;15.69;100.00;102712.13;4991143;28;45375;-88
2022/07/08 01:12:57;;;;;;;;;4.60;3.00;;;;;15.65;100.00;102711.41;4970633;28;46227;-90
2022/07/08 01:15:23;;;;;;;;;4.25;4.00;;;;;15.63;100.00;102712.44;4948467;28;45415;-89
2022/07/08 01:17:48;;;;;;;;;1.25;1.25;;;;;15.55;100.00;102725.38;4948582;28;44804;-89
2022/07/08 01:20:16;;;;;;;;;3.25;3.25;;;;;15.53;100.00;102721.94;4961774;28;44892;-88
2022/07/08 01:22:45;;;;;;;;;4.20;4.20;;;;;15.48;100.00;102724.88;4961438;28;46814;-89
2022/07/08 01:25:11;;;;;;;;;4.00;2.80;;;;;15.47;100.00;102728.47;4962245;28;44643;-88
2022/07/08 01:27:36;;;;;;;;;3.00;2.00;;;;;15.38;100.00;102724.53;4964800;28;45237;-89
2022/07/08 01:30:04;;;;;;;;;9.25;3.75;;;;;15.34;100.00;102738.16;4946311;28;44907;-88
2022/07/08 01:32:35;;;;;;;;;4.00;4.00;;;;;15.31;100.00;102736.50;4964519;28;45083;-87
2022/07/08 01:35:01;;;;;;;;;3.80;3.40;;;;;15.26;100.00;102741.25;4962717;28;45811;-87
2022/07/08 01:37:26;;;;;;;;;6.00;4.75;;;;;15.22;100.00;102754.88;4966558;28;45275;-84
2022/07/08 01:39:52;;;;;;;;;6.50;5.25;;;;;15.11;100.00;102758.16;4974996;28;44795;-85
2022/07/08 01:42:18;;;;;;;;;5.75;3.25;;;;;15.10;100.00;102741.22;4969736;28;45438;-88
2022/07/08 01:44:43;;;;;;;;;4.00;4.00;;;;;15.11;100.00;102742.09;4969924;28;45408;-89
2022/07/08 01:47:09;;;;;;;;;2.25;2.25;;;;;15.05;100.00;102737.94;4974137;28;44748;-87
2022/07/08 01:49:34;;;;;;;;;5.75;4.00;;;;;15.02;100.00;102751.47;4965606;28;44815;-89
2022/07/08 01:52:02;;;;;;;;;5.25;3.25;;;;;15.00;100.00;102752.53;4953062;28;45387;-89
2022/07/08 01:54:27;;;;;;;;;1.00;1.00;;;;;14.89;100.00;102761.09;4971663;28;45421;-86
2022/07/08 01:57:13;;;;;;;;;3.25;3.00;;;;;14.85;100.00;102754.19;4965749;28;45384;-86
2022/07/08 01:59:38;;;;;;;;;6.75;3.50;;;;;14.81;100.00;102757.97;4966789;28;45355;-87
2022/07/08 02:02:04;;;;;;;;;5.00;5.00;;;;;14.82;100.00;102759.69;4971282;28;44917;-88
2022/07/08 02:04:29;;;;;;;;;4.00;4.00;;;;;14.82;100.00;102751.66;4967542;28;45251;-89
2022/07/08 02:06:55;;;;;;;;;5.25;3.00;;;;;14.76;100.00;102750.19;4960314;28;45229;-87
2022/07/08 02:09:20;;;;;;;;;4.00;4.00;;;;;14.76;100.00;102755.53;4960483;28;44765;-87
2022/07/08 02:14:30;;;;;;;;;4.00;4.00;;;;;14.63;100.00;102752.63;4959980;28;44727;-86
2022/07/08 02:16:55;;;;;;;;;4.00;3.00;;;;;14.61;100.00;102756.34;4958854;28;45049;-88
2022/07/08 02:19:21;;;;;;;;;6.00;5.25;;;;;14.56;100.00;102758.38;4927173;28;45189;-87
2022/07/08 02:21:46;;;;;;;;;7.00;6.00;;;;;14.49;100.00;102756.94;4944187;28;45571;-86
2022/07/08 02:24:13;;;;;;;;;5.75;4.25;;;;;14.46;100.00;102749.06;4965157;28;44745;-86
2022/07/08 02:26:39;;;;;;;;;4.80;4.80;;;;;14.45;100.00;102758.88;4968206;28;45266;-89
2022/07/08 02:29:05;;;;;;;;;6.25;6.00;;;;;14.41;100.00;102760.00;4947974;28;44893;-88
2022/07/08 02:31:30;;;;;;;;;6.50;4.00;;;;;14.40;100.00;102758.25;4948760;28;45247;-90
2022/07/08 02:33:59;;;;;;;;;9.75;5.25;;;;;14.33;100.00;102767.53;4970438;28;45370;-88
2022/07/08 03:44:10;;;;;;;;;3.40;3.40;;;;;13.82;100.00;102772.69;4205892;23;45357;-92
2022/07/08 03:56:52;;;;;;;;;11.80;3.40;;;;;13.88;100.00;102790.25;4958150;28;44721;-91
2022/07/08 04:12:56;;;;;;;;;8.75;4.25;;;;;13.82;100.00;102794.06;4841430;29;44713;-92
2022/07/08 04:15:36;;;;;;;;;8.00;5.75;;;;;13.83;100.00;102795.81;4834322;29;45048;-92
2022/07/08 04:28:36;;;;;;;;;6.80;4.00;;;;;14.40;100.00;102798.38;4829950;29;45071;-91
2022/07/08 04:34:26;;;;;;;;;5.20;4.00;;;;;14.55;100.00;102794.97;4852326;29;45449;-92
2022/07/08 04:43:35;;;;;;;;;6.80;3.60;;;;;15.22;100.00;102806.63;4852575;29;44773;-85
2022/07/08 04:48:56;;;;;;;;;4.20;1.60;;;;;15.48;100.00;102786.50;4853417;29;45298;-90
2022/07/08 04:51:23;;;;;;;;;7.00;4.50;;;;;15.67;100.00;102795.28;4866682;28;45279;-90
2022/07/08 04:53:49;;;;;;;;;6.20;4.40;;;;;15.73;100.00;102798.56;4947623;28;44720;-91
2022/07/08 04:56:14;;;;;;;;;4.60;3.00;;;;;15.87;100.00;102796.84;4932870;28;44737;-92
2022/07/08 04:58:40;;;;;;;;;5.50;1.25;;;;;15.90;100.00;102804.69;4938871;28;45267;-90
2022/07/08 05:01:06;;;;;;;;;3.00;1.50;;;;;15.96;100.00;102808.88;4950932;28;45033;-91
2022/07/08 05:03:31;;;;;;;;;5.00;2.50;;;;;16.00;100.00;102813.06;4932953;28;45252;-91
2022/07/08 05:05:57;;;;;;;;;6.25;4.75;;;;;16.08;100.00;102801.94;4928896;28;44772;-90
2022/07/08 05:08:24;;;;;;;;;14.25;10.00;;;;;16.14;100.00;102805.09;4930791;28;45334;-90
2022/07/08 05:10:59;;;;;;;;;5.00;3.00;;;;;16.26;100.00;102803.56;4932941;28;45323;-91
2022/07/08 05:13:25;;;;;;;;;4.80;3.00;;;;;16.25;100.00;102806.34;4927895;28;44686;-90
2022/07/08 05:15:50;;;;;;;;;4.25;4.25;;;;;16.33;100.00;102812.97;4948580;28;44757;-90
2022/07/08 05:18:34;;;;;;;;;2.75;1.00;;;;;16.36;100.00;102815.47;4932712;28;44818;-90
2022/07/08 05:21:32;;;;;;;;;6.00;2.40;;;;;16.37;100.00;102827.94;4935019;28;45439;-92
2022/07/08 05:27:26;;;;;;;;;8.20;4.40;;;;;16.39;100.00;102827.84;4906755;29;44786;-91
2022/07/08 05:33:49;;;;;;;;;6.40;6.00;;;;;16.90;100.00;102817.69;4903756;29;44846;-91
2022/07/08 05:36:38;;;;;;;;;3.20;2.00;;;;;17.10;100.00;102824.53;4888301;29;44766;-88
2022/07/08 05:39:31;;;;;;;;;;;;;;;;;;;;;
2022/07/08 05:42:25;;;;;;;;;5.60;3.20;;;;;17.16;100.00;102811.63;4887937;29;69488;-90
2022/07/08 05:44:51;;;;;;;;;3.00;3.00;;;;;17.24;100.00;102812.94;4887496;29;45584;-88
2022/07/08 05:47:16;;;;;;;;;3.75;3.25;;;;;17.39;100.00;102810.16;4881923;29;44760;-88
2022/07/08 05:49:46;;;;;;;;;4.00;2.50;;;;;17.46;100.00;102816.91;4880560;29;44992;-88
2022/07/08 05:52:16;;;;;;;;;8.60;5.00;;;;;17.53;100.00;102814.66;4871061;29;44769;-89
2022/07/08 05:54:48;;;;;;;;;4.40;3.00;;;;;17.62;100.00;102818.59;4871190;29;45252;-79
2022/07/08 05:57:15;;;;;;;;;4.80;4.80;;;;;17.83;100.00;102813.72;4869734;29;44749;-89
2022/07/08 05:59:41;;;;;;;;;6.60;5.20;;;;;17.89;100.00;102816.00;4886319;29;44712;-87
2022/07/08 06:02:07;;;;;;;;;6.60;3.80;;;;;17.85;100.00;102818.03;4856102;29;44981;-87
2022/07/08 06:04:32;;;;;;;;;4.75;4.75;;;;;17.90;100.00;102809.69;4917327;28;45410;-89
2022/07/08 06:06:58;;;;;;;;;4.00;4.00;;;;;18.01;100.00;102815.22;4926349;28;44808;-87
2022/07/08 06:09:24;;;;;;;;;4.50;3.75;;;;;18.28;100.00;102817.91;4918679;28;44860;-86
2022/07/08 06:11:50;;;;;;;;;7.40;4.20;;;;;18.50;100.00;102820.03;4924112;28;44919;-88
2022/07/08 06:14:21;;;;;;;;;7.00;4.25;;;;;18.49;100.00;102821.00;4919572;28;45419;-86
2022/07/08 06:16:49;;;;;;;;;9.40;7.00;;;;;18.33;100.00;102814.94;4921618;28;44841;-88
2022/07/08 06:19:16;;;;;;;;;4.40;3.80;;;;;18.32;100.00;102811.34;4903938;28;45356;-89
2022/07/08 06:21:42;;;;;;;;;7.20;5.40;;;;;18.41;100.00;102815.25;4902650;28;44758;-89
2022/07/08 06:24:08;;;;;;;;;1.00;0.00;;;;;18.49;100.00;102818.31;4903628;29;45307;-89
2022/07/08 06:26:33;;;;;;;;;4.75;4.75;;;;;18.59;100.00;102821.25;4921974;28;44759;-88
2022/07/08 06:28:59;;;;;;;;;9.50;4.75;;;;;18.67;100.00;102822.44;4924666;28;44684;-88
2022/07/08 06:31:24;;;;;;;;;5.00;4.00;;;;;18.83;100.00;102824.13;4924739;28;45313;-88
2022/07/08 06:33:56;;;;;;;;;9.00;6.75;;;;;18.90;100.00;102828.09;4923099;28;46466;-89
2022/07/08 06:36:24;;;;;;;;;7.60;6.00;;;;;18.99;100.00;102822.09;4924243;28;45354;-88
2022/07/08 06:38:51;;;;;;;;;5.00;5.00;;;;;19.08;100.00;102832.22;4928461;28;44721;-87
2022/07/08 06:41:17;;;;;;;;;6.00;5.40;;;;;19.13;100.00;102834.59;4939755;28;44898;-88
2022/07/08 06:43:44;;;;;;;;;12.00;7.00;;;;;19.22;100.00;102842.06;4928636;28;45307;-88
2022/07/08 06:46:09;;;;;;;;;3.40;3.40;;;;;18.85;100.00;102835.66;4926133;28;45358;-86
2022/07/08 06:48:36;;;;;;;;;7.50;4.75;;;;;18.92;100.00;102836.97;4929559;28;45340;-87
2022/07/08 06:51:02;;;;;;;;;6.20;3.40;;;;;19.11;100.00;102836.56;4927946;28;45394;-85
2022/07/08 06:54:34;;;;;;;;;8.00;6.75;;;;;19.07;100.00;102837.72;4926323;28;45490;-89
2022/07/08 06:56:12;;;;;;;;;4.80;4.80;;;;;18.97;100.00;102827.59;4926424;28;44758;-86
2022/07/08 06:58:38;;;;;;;;;6.00;4.25;;;;;19.04;100.00;102829.84;4909468;28;45274;-88
2022/07/08 07:01:03;;;;;;;;;4.75;4.75;;;;;19.27;100.00;102838.06;4929376;28;44795;-87
2022/07/08 07:03:28;;;;;;;;;5.25;5.25;;;;;19.30;100.00;102833.44;4927451;28;45278;-88
2022/07/08 07:05:54;;;;;;;;;15.50;11.50;;;;;19.22;100.00;102842.91;4904902;28;44678;-87
2022/07/08 07:08:19;;;;;;;;;5.25;4.25;;;;;19.25;100.00;102831.94;4923500;28;45019;-87
2022/07/08 07:10:44;;;;;;;;;9.00;8.00;;;;;18.88;100.00;102843.53;4919044;28;44880;-87
2022/07/08 07:13:10;;;;;;;;;2.75;2.75;;;;;18.99;100.00;102836.41;4908098;29;45215;-88
2022/07/08 07:15:35;;;;;;;;;8.25;6.25;;;;;19.11;100.00;102840.13;4908912;29;44710;-88
2022/07/08 07:18:00;;;;;;;;;4.00;4.00;;;;;19.18;100.00;102835.16;4926929;28;44764;-87
2022/07/08 07:20:26;;;;;;;;;6.25;4.75;;;;;19.38;100.00;102831.03;4892782;29;44928;-86
2022/07/08 07:22:51;;;;;;;;;3.25;3.00;;;;;19.55;100.00;102841.50;4891084;29;45376;-87
2022/07/08 07:25:17;;;;;;;;;6.00;4.75;;;;;19.61;100.00;102838.38;4907947;29;44766;-87
2022/07/08 07:27:42;;;;;;;;;6.75;5.00;;;;;19.81;100.00;102833.38;4904334;29;45389;-87
2022/07/08 07:30:09;;;;;;;;;3.25;2.25;;;;;19.96;100.00;102830.44;4911796;29;44873;-86
2022/07/08 07:32:34;;;;;;;;;11.20;6.20;;;;;20.01;100.00;102840.88;4912164;29;45080;-86
2022/07/08 07:34:59;;;;;;;;;6.50;5.25;;;;;19.73;100.00;102836.66;4911542;29;44745;-87
2022/07/08 07:37:25;;;;;;;;;5.50;5.00;;;;;19.87;100.00;102838.34;4923647;28;45050;-87
2022/07/08 07:39:50;;;;;;;;;4.00;4.00;;;;;20.16;100.00;102837.09;4921830;28;44842;-81
2022/07/08 07:42:15;;;;;;;;;5.50;4.50;;;;;20.28;100.00;102848.78;4922179;28;45401;-85
2022/07/08 07:44:41;;;;;;;;;7.25;6.00;;;;;20.33;100.00;102840.34;4930466;28;44830;-84
2022/07/08 07:47:06;;;;;;;;;4.00;4.00;;;;;20.25;100.00;102840.91;4932718;28;44677;-89
2022/07/08 07:49:32;;;;;;;;;4.25;4.25;;;;;20.29;100.00;102847.81;4927366;28;44832;-88
2022/07/08 07:51:57;;;;;;;;;5.00;5.00;;;;;20.30;100.00;102846.81;4926928;28;45485;-88
2022/07/08 07:54:23;;;;;;;;;9.00;7.25;;;;;20.43;100.00;102847.63;4911062;28;44642;-88
2022/07/08 07:56:48;;;;;;;;;10.25;5.50;;;;;20.53;100.00;102855.94;4910920;28;44754;-88
2022/07/08 07:59:14;;;;;;;;;5.75;5.75;;;;;20.40;100.00;102838.91;4931054;28;44757;-88
2022/07/08 08:01:39;;;;;;;;;6.00;5.00;;;;;20.28;100.00;102833.44;4931178;28;45254;-87
2022/07/08 08:04:04;;;;;;;;;6.50;4.25;;;;;20.21;100.00;102837.59;4930368;28;44694;-87
2022/07/08 08:06:30;;;;;;;;;8.50;6.00;;;;;20.18;100.00;102831.56;4909004;28;45004;-88
2022/07/08 08:08:56;;;;;;;;;6.25;5.50;;;;;19.99;100.00;102823.97;4925146;28;44854;-88
2022/07/08 08:11:21;;;;;;;;;5.00;5.00;;;;;19.91;100.00;102835.28;4921892;28;45271;-89
2022/07/08 08:13:47;;;;;;;;;8.25;8.25;;;;;19.85;100.00;102832.19;4902707;28;44964;-88
2022/07/08 08:16:12;;;;;;;;;8.75;7.75;;;;;20.00;100.00;102831.94;4922393;28;45590;-88
2022/07/08 08:18:37;;;;;;;;;6.75;4.50;;;;;19.86;100.00;102834.78;4924001;28;44882;-88
2022/07/08 08:21:03;;;;;;;;;7.50;5.50;;;;;19.95;100.00;102836.81;4906460;28;45344;-88
2022/07/08 08:23:28;;;;;;;;;13.50;9.50;;;;;19.86;100.00;102831.22;4909315;28;44794;-88
2022/07/08 08:25:54;;;;;;;;;10.25;8.50;;;;;19.80;100.00;102834.38;4928011;28;45256;-88
2022/07/08 08:28:19;;;;;;;;;6.75;3.75;;;;;19.84;100.00;102835.88;4913616;28;45479;-87
2022/07/08 08:30:44;;;;;;;;;7.50;7.50;;;;;19.85;100.00;102834.91;4912521;28;45448;-89
2022/07/08 08:33:10;;;;;;;;;9.25;9.25;;;;;19.73;100.00;102839.34;4929062;28;44822;-88
2022/07/08 08:35:35;;;;;;;;;8.50;8.50;;;;;19.58;100.00;102825.13;4926073;28;44689;-87
2022/07/08 08:38:00;;;;;;;;;10.00;8.25;;;;;19.66;100.00;102821.88;4924958;28;44963;-87
2022/07/08 08:40:28;;;;;;;;;7.25;7.25;;;;;19.64;100.00;102813.06;4925445;28;45242;-88
2022/07/08 08:42:53;;;;;;;;;12.20;8.60;;;;;19.82;100.00;102813.53;4925729;28;44653;-88
2022/07/08 08:45:20;;;;;;;;;7.50;6.00;;;;;19.98;100.00;102815.00;4925641;28;45414;-87
2022/07/08 08:47:49;;;;;;;;;11.40;7.00;;;;;20.01;100.00;102817.47;4927847;28;45147;-88
2022/07/08 08:53:03;;;;;;;;;5.00;5.00;;;;;19.71;100.00;102815.16;4925158;28;44777;-88
2022/07/08 08:55:30;;;;;;;;;10.60;5.80;;;;;19.46;100.00;102805.28;4924353;28;45297;-88
2022/07/08 08:58:00;;;;;;;;;4.80;3.00;;;;;19.70;100.00;102805.38;4924998;28;45284;-88
2022/07/08 09:00:27;;;;;;;;;10.40;8.60;;;;;20.00;100.00;102796.84;4911510;28;45411;-87
2022/07/08 09:02:54;;;;;;;;;9.00;5.60;;;;;20.25;100.00;102792.31;4932733;28;44848;-88
2022/07/08 09:05:21;;;;;;;;;10.00;8.40;;;;;19.84;100.00;102803.50;4928462;28;45222;-86
2022/07/08 09:07:46;;;;;;;;;4.80;4.80;;;;;19.79;100.00;102800.28;4918955;28;44784;-85
2022/07/08 09:10:13;;;;;;;;;10.50;5.25;;;;;19.79;100.00;102798.44;4922073;28;45406;-84
2022/07/08 09:12:39;;;;;;;;;6.00;4.80;;;;;19.96;100.00;102789.09;4925679;28;44793;-87
2022/07/08 09:15:05;;;;;;;;;7.50;4.75;;;;;20.10;100.00;102788.94;4913963;28;45078;-86
2022/07/08 09:17:30;;;;;;;;;11.60;8.60;;;;;20.11;100.00;102787.94;4920204;28;45293;-87
2022/07/08 09:19:56;;;;;;;;;8.50;5.50;;;;;20.18;100.00;102785.69;4916370;28;46456;-86
2022/07/08 09:22:23;;;;;;;;;9.00;8.25;;;;;20.30;100.00;102779.34;4916593;28;44846;-86
2022/07/08 09:24:48;;;;;;;;;8.00;6.60;;;;;20.42;100.00;102781.13;4913201;28;45498;-85
2022/07/08 09:27:15;;;;;;;;;4.00;3.75;;;;;20.54;100.00;102774.78;4921865;28;44819;-86
2022/07/08 09:29:57;;;;;;;;;7.80;7.60;;;;;20.72;100.00;102780.63;4904874;28;47048;-86
2022/07/08 09:32:23;;;;;;;;;7.40;5.20;;;;;20.74;100.00;102785.91;4917553;28;45229;-85
2022/07/08 09:34:48;;;;;;;;;7.75;7.50;;;;;20.92;100.00;102781.78;4924437;28;45257;-87
2022/07/08 09:37:15;;;;;;;;;10.25;5.25;;;;;20.97;100.00;102792.22;4915289;28;44842;-87
2022/07/08 09:39:42;;;;;;;;;6.20;5.40;;;;;20.71;100.00;102776.22;4905431;28;45180;-86
2022/07/08 09:42:08;;;;;;;;;8.20;6.20;;;;;20.87;100.00;102780.41;4913679;28;45605;-87
2022/07/08 09:44:35;;;;;;;;;5.40;4.80;;;;;20.87;100.00;102775.88;4925458;28;44832;-90
2022/07/08 09:47:00;;;;;;;;;4.80;4.80;;;;;20.99;100.00;102774.06;4909185;28;44904;-87
2022/07/08 09:49:33;;;;;;;;;9.25;6.00;;;;;21.17;100.00;102777.97;4925150;28;45460;-87
2022/07/08 09:52:00;;;;;;;;;5.20;5.20;;;;;21.14;96.30;102780.94;4916989;28;44814;-90
2022/07/08 09:54:28;;;;;;;;;10.00;6.40;;;;;21.13;96.72;102778.34;4907132;28;44750;-89
2022/07/08 09:57:17;;;;;;;;;8.00;6.60;;;;;21.13;98.20;102775.66;4909208;28;44915;-91
2022/07/08 09:59:42;;;;;;;;;7.60;7.60;;;;;21.19;94.04;102794.97;4849197;29;45518;-91
2022/07/08 10:02:08;;;;;;;;;5.25;5.25;;;;;21.24;93.73;102781.94;4831529;29;44834;-90
2022/07/08 10:04:34;;;;;;;;;6.20;3.40;;;;;21.29;93.03;102771.63;4826864;29;44862;-88
2022/07/08 10:06:59;;;;;;;;;12.00;6.00;;;;;21.52;93.07;102780.63;4846389;29;44783;-87
2022/07/08 10:09:26;;;;;;;;;7.75;5.00;;;;;21.39;94.06;102790.69;4841147;29;45373;-89
2022/07/08 10:11:52;;;;;;;;;11.00;9.80;;;;;21.29;94.48;102782.44;4849958;29;45556;-88
2022/07/08 10:14:18;;;;;;;;;8.00;5.60;;;;;21.32;96.54;102778.63;4847040;29;44715;-88
2022/07/08 10:16:47;;;;;;;;;6.40;6.40;;;;;21.37;95.50;102784.56;4830134;29;44979;-89
2022/07/08 10:19:26;;;;;;;;;5.80;5.60;;;;;21.37;93.74;102765.63;4842574;29;45516;-89
2022/07/08 10:21:54;;;;;;;;;5.40;5.40;;;;;21.45;92.82;102778.53;4851927;29;44981;-87
2022/07/08 10:24:27;;;;;;;;;4.40;4.00;;;;;21.54;90.76;102775.94;4840195;29;44704;-88
2022/07/08 10:26:57;;;;;;;;;5.80;5.80;;;;;21.69;90.43;102772.97;4835333;29;44820;-88
2022/07/08 10:29:30;;;;;;;;;9.20;7.80;;;;;21.78;92.30;102767.66;4838178;29;45447;-87
2022/07/08 10:31:57;;;;;;;;;5.20;4.20;;;;;21.81;89.35;102769.25;4838274;29;45287;-90
2022/07/08 10:34:33;;;;;;;;;5.00;4.00;;;;;21.86;87.37;102777.88;4831899;29;44693;-89
2022/07/08 10:37:02;;;;;;;;;10.00;7.00;;;;;21.93;90.56;102767.38;4871382;28;45323;-89
2022/07/08 10:39:30;;;;;;;;;6.20;3.60;;;;;21.85;91.98;102769.84;4919408;28;46619;-89
2022/07/08 10:42:02;;;;;;;;;6.80;6.00;;;;;21.93;88.83;102767.38;4919793;28;44892;-88
2022/07/08 10:44:52;;;;;;;;;4.80;4.60;;;;;21.94;83.51;102772.66;4913845;28;44753;-88
2022/07/08 10:47:25;;;;;;;;;2.80;2.80;;;;;21.94;85.04;102769.94;4920385;28;45059;-88
2022/07/08 10:49:51;;;;;;;;;7.40;4.80;;;;;21.81;83.54;102771.97;4907670;28;45096;-88
2022/07/08 10:52:20;;;;;;;;;6.00;5.00;;;;;21.89;86.51;102780.28;4925132;28;44653;-89
2022/07/08 10:54:46;;;;;;;;;7.20;7.20;;;;;21.97;86.00;102772.41;4924563;28;44773;-91
2022/07/08 10:57:29;;;;;;;;;6.00;6.00;;;;;22.10;89.99;102753.31;4906127;28;44912;-90
2022/07/08 11:00:10;;;;;;;;;6.60;5.20;;;;;22.33;85.47;102760.34;4938008;28;45343;-90
2022/07/08 11:02:43;;;;;;;;;6.60;4.40;;;;;22.47;83.78;102763.75;4926714;28;44756;-88
2022/07/08 11:05:54;;;;;;;;;4.40;4.40;;;;;22.54;81.54;102754.97;4920478;28;44647;-90
2022/07/08 11:08:19;;;;;;;;;7.00;6.00;;;;;22.29;80.49;102782.44;4877637;29;44710;-88
2022/07/08 11:10:48;;;;;;;;;6.50;5.25;;;;;22.40;81.46;102758.00;4864587;29;46858;-90
2022/07/08 11:13:14;;;;;;;;;6.00;6.00;;;;;22.43;77.90;102755.00;4875137;29;44805;-90
2022/07/08 11:15:40;;;;;;;;;7.75;5.00;;;;;22.56;77.37;102750.28;4872473;29;44673;-89
2022/07/08 11:18:05;;;;;;;;;7.50;2.75;;;;;22.77;78.94;102747.56;4872608;29;45296;-87
2022/07/08 11:20:31;;;;;;;;;5.00;3.50;;;;;22.90;76.46;102766.34;4874842;29;45106;-89
2022/07/08 11:23:06;;;;;;;;;5.00;5.00;;;;;23.06;75.21;102764.03;4885583;29;44639;-88
2022/07/08 11:25:31;;;;;;;;;4.20;4.20;;;;;22.94;72.48;102756.09;4860402;29;45442;-87
2022/07/08 11:27:57;;;;;;;;;5.00;5.00;;;;;23.14;75.95;102743.50;4848363;29;45002;-86
2022/07/08 11:30:22;;;;;;;;;5.00;2.00;;;;;23.30;72.00;102747.41;4856790;29;45395;-89
2022/07/08 11:32:51;;;;;;;;;6.40;3.80;;;;;23.44;72.16;102748.03;4858801;29;44791;-87
2022/07/08 11:35:19;;;;;;;;;4.60;2.80;;;;;23.49;69.00;102753.91;4851029;29;44846;-87
2022/07/08 11:37:44;;;;;;;;;6.20;6.20;;;;;23.63;71.44;102750.81;4870003;29;44815;-86
2022/07/08 11:40:18;;;;;;;;;3.25;3.25;;;;;23.77;70.78;102747.72;4877755;29;46514;-87
2022/07/08 11:42:44;;;;;;;;;3.80;2.00;;;;;23.56;64.37;102755.09;4896979;28;45212;-86
2022/07/08 11:45:11;;;;;;;;;4.60;3.40;;;;;23.86;68.09;102746.03;4917082;28;44805;-86
2022/07/08 11:47:37;;;;;;;;;2.60;1.40;;;;;24.18;69.15;102740.34;4917379;28;44787;-85
2022/07/08 11:50:04;;;;;;;;;2.50;2.50;;;;;24.22;61.46;102752.63;4906235;28;45121;-86
2022/07/08 11:52:30;;;;;;;;;3.20;3.20;;;;;24.14;61.38;102744.34;4905368;28;44777;-86
2022/07/08 11:54:57;;;;;;;;;3.20;2.60;;;;;24.21;64.70;102742.75;4926439;28;45381;-88
2022/07/08 11:57:23;;;;;;;;;4.40;4.40;;;;;24.23;63.86;102742.63;4908683;29;44905;-90
2022/07/08 11:59:50;;;;;;;;;5.75;3.50;;;;;24.43;65.10;102738.94;4922289;29;45500;-91
2022/07/08 12:02:20;;;;;;;;;5.20;4.00;;;;;24.50;60.53;102752.78;4928387;28;44649;-91
2022/07/08 12:04:48;;;;;;;;;3.00;3.00;;;;;24.52;65.03;102715.47;4921171;29;44889;-93
2022/07/08 12:07:25;;;;;;;;;4.80;4.00;;;;;24.57;60.56;102732.19;4915405;29;44778;-90
2022/07/08 12:09:58;;;;;;;;;3.60;3.00;;;;;24.37;60.35;102742.22;4915561;29;45249;-89
2022/07/08 12:12:29;;;;;;;;;4.40;3.60;;;;;24.38;61.90;102729.50;4925600;28;44671;-90
2022/07/08 12:14:55;;;;;;;;;3.60;3.60;;;;;24.71;62.64;102719.97;4936756;28;44802;-90
2022/07/08 12:17:28;;;;;;;;;4.80;3.80;;;;;24.85;59.80;102734.00;4917423;28;45001;-89
2022/07/08 12:19:55;;;;;;;;;3.80;2.00;;;;;25.00;59.23;102733.50;4916566;28;45441;-81
2022/07/08 12:22:49;;;;;;;;;6.40;3.40;;;;;25.22;61.58;102729.56;4913810;28;44753;-86
2022/07/08 12:25:19;;;;;;;;;4.60;2.40;;;;;25.31;57.04;102723.22;4904144;29;44906;-87
2022/07/08 12:27:55;;;;;;;;;4.00;2.00;;;;;25.50;55.37;102717.69;4907791;28;45211;-86
2022/07/08 12:30:29;;;;;;;;;2.80;2.40;;;;;25.62;55.64;102723.75;4924916;28;45267;-89
2022/07/08 12:33:02;;;;;;;;;2.00;2.00;;;;;25.69;56.68;102707.69;4925997;28;44778;-87
2022/07/08 12:35:29;;;;;;;;;3.00;2.00;;;;;25.82;56.17;102705.44;4929333;28;44778;-86
2022/07/08 12:38:10;;;;;;;;;2.20;1.60;;;;;25.70;54.75;102715.69;4936670;28;44774;-86
2022/07/08 12:40:43;;;;;;;;;5.60;3.60;;;;;25.91;54.65;102711.84;4898081;28;46741;-87
2022/07/08 12:43:11;;;;;;;;;4.00;4.00;;;;;25.88;51.35;102708.44;4906754;29;44805;-91
2022/07/08 12:45:37;;;;;;;;;4.00;3.00;;;;;26.05;52.88;102717.59;4896651;28;44737;-87
2022/07/08 12:48:03;;;;;;;;;6.00;5.00;;;;;26.22;50.44;102706.84;4921153;28;44762;-87
2022/07/08 12:50:31;;;;;;;;;3.80;2.60;;;;;26.34;50.97;102713.75;4897490;28;45315;-87
2022/07/08 12:52:57;;;;;;;;;2.20;2.20;;;;;26.60;52.21;102701.03;4904856;28;45099;-89
2022/07/08 12:55:23;;;;;;;;;3.75;3.75;;;;;26.86;51.99;102698.28;4912620;28;45217;-88
2022/07/08 12:57:48;;;;;;;;;2.75;1.75;;;;;27.17;57.65;102692.31;4913742;28;44880;-89
2022/07/08 13:00:14;;;;;;;;;3.50;3.50;;;;;26.97;48.07;102708.06;4896807;29;46957;-87
2022/07/08 13:02:41;;;;;;;;;3.50;2.25;;;;;26.95;47.46;102692.88;4912066;28;44953;-87
2022/07/08 13:05:07;;;;;;;;;2.20;2.20;;;;;27.02;47.43;102702.09;4900672;28;44840;-87
2022/07/08 13:07:33;;;;;;;;;3.80;3.80;;;;;27.01;47.75;102678.59;4927810;28;44811;-88
2022/07/08 13:09:58;;;;;;;;;7.00;5.00;;;;;27.18;49.00;102683.13;4930285;28;45250;-87
2022/07/08 13:12:24;;;;;;;;;3.50;2.25;;;;;27.18;47.97;102687.75;4896653;29;44725;-88
2022/07/08 13:14:53;;;;;;;;;5.25;3.75;;;;;27.35;49.47;102673.13;4924887;28;44768;-87
2022/07/08 13:17:19;;;;;;;;;6.00;3.60;;;;;27.55;48.34;102679.97;4914151;28;44878;-88
2022/07/08 13:19:45;;;;;;;;;2.60;1.60;;;;;27.67;49.40;102697.78;4905513;28;45291;-89
2022/07/08 13:22:10;;;;;;;;;4.25;4.00;;;;;27.58;45.50;102692.47;4909537;29;44725;-89
2022/07/08 13:24:37;;;;;;;;;5.50;4.00;;;;;27.95;45.67;102681.13;4933495;28;44744;-90
2022/07/08 13:27:03;;;;;;;;;2.40;2.00;;;;;28.07;43.62;102689.81;4926514;28;44844;-88
2022/07/08 13:29:29;;;;;;;;;5.75;3.25;;;;;28.20;48.41;102671.03;4911616;28;44936;-87
2022/07/08 13:31:55;;;;;;;;;4.00;2.20;;;;;28.27;43.89;102701.25;4913133;28;44738;-87